weather.gov     
National Weather Service

Terminal Aerodrome Forecast
NWS Homepage
This page is being discontinued on March 12, 2014.
The same data is available at this site. Please update your bookmarks.
Thank you, and we apologize for the inconvenience.
Please send an email to SR-SRH.Webmaster@noaa.gov with any concerns.


Current Version
Previous Version:    01  02  03  04  05  06  07  08  09  10  11  12  13  14  15  16  17  18  19  20  21  22  23  24  25  26  27  28  29  30  
   31  32  33  34  35  36  37  38  39  40  41  
[Printable]
224
FTUS41 KCLE 241300 AAA
TAFTOL
TAF AMD
KTOL 241336Z 2414/2512 21015G30KT P6SM VCSH SCT015 BKN050
      TEMPO 2414/2416 VRB30G45KT 5SM TSRA BR SCT015CB OVC030
     FM241600 22028G40KT P6SM OVC015
      TEMPO 2416/2418 3SM -SHRA
     FM241800 23028G40KT P6SM BKN015
      TEMPO 2418/2421 24030G45KT
     FM242300 24022G30KT P6SM OVC025
     FM250600 24015G25KT P6SM OVC035=


U.S. Dept. of Commerce
NOAA National Weather Service
1325 East West Highway
Silver Spring, MD 20910
E-mail: w-nws.webmaster@noaa.gov
Page last modified: May 16, 2007
NATIONAL WEATHER SERVICE: for Safety, for Work, for Fun - FOR LIFE